NCAR-RAP Real-Time Weather Data

Output produced by METARs form (06 May 2021  15:44 UTC)
found at http://weather.rap.ucar.edu/surface/
 
KEVW 061453Z AUTO 00000KT 10SM CLR 10/M09 A3033 RMK AO2 SLP214 T01001089 50002 $
KEVW 061353Z AUTO 18003KT 10SM CLR 04/M09 A3033 RMK AO2 SLP227 T00391089 $
KEVW 061253Z AUTO 10003KT 10SM CLR 03/M09 A3032 RMK AO2 SLP216 T00331094 $
KEVW 061153Z AUTO 00000KT 10SM CLR 05/M10 A3032 RMK AO2 SLP207 T00501100 10089 20033 56002 $
KEVW 061053Z AUTO 16004KT 10SM CLR 04/M09 A3032 RMK AO2 SLP209 T00391089 $
KEVW 060953Z AUTO 13005KT 10SM CLR 04/M07 A3031 RMK AO2 SLP204 T00441067 $
KEVW 060853Z AUTO 16007KT 10SM CLR 04/M07 A3032 RMK AO2 SLP217 T00391067 58003 $
KEVW 060753Z AUTO 15005KT 10SM CLR 04/M06 A3034 RMK AO2 SLP222 T00441061 $
KEVW 060653Z AUTO 14005KT 10SM CLR 07/M06 A3034 RMK AO2 SLP220 T00721061 401720011 $
KEVW 060553Z AUTO 15004KT 10SM CLR 08/M06 A3033 RMK AO2 SLP221 T00781061 10167 20072 51008 $
KEVW 060453Z AUTO 34004KT 10SM CLR 09/M06 A3033 RMK AO2 SLP217 T00941061 $
KEVW 060353Z AUTO 33005KT 10SM CLR 09/M06 A3033 RMK AO2 SLP221 T00941056 $
KEVW 060253Z AUTO 29008KT 10SM CLR 10/M07 A3030 RMK AO2 SLP216 T01001067 53008 $
KEVW 060153Z AUTO 27009KT 10SM CLR 13/M06 A3029 RMK AO2 SLP210 T01281061